Terminal Aerodrome Forecast
Issued by NWS Binghamton, NY

Home | Current Version | Previous Version | Text Only | Print | Product List | Glossary On
Versions: 1 2 3 4 5 6 7 8 9 10 11 12 13 14 15 16 17
449
FTUS41 KBGM 312323
TAFBGM
TAF
KBGM 312323Z 0100/0124 25005KT P6SM SCT040 BKN100
      TEMPO 0101/0104 -SHRA BKN040
     FM010500 VRB04KT P6SM BKN120
     FM010800 32005KT P6SM BKN015
     FM011400 34008KT P6SM BKN035
     FM011800 35010KT P6SM SCT050=

USA.gov is the U.S. government's official web portal to all federal, state and local government web resources and services.